createdAt,value
2022-12-06T00:01:12.638Z,9.52
2022-12-06T00:05:34.720Z,8.82
2022-12-06T00:09:56.743Z,8.70
2022-12-06T00:14:20.072Z,9.07
2022-12-06T00:18:44.192Z,11.10
2022-12-06T00:23:05.978Z,10.52
2022-12-06T00:27:28.110Z,8.48
2022-12-06T00:31:50.693Z,7.80
2022-12-06T00:36:19.034Z,7.90
2022-12-06T00:40:40.722Z,6.95
2022-12-06T00:45:02.711Z,6.63
2022-12-06T00:49:24.761Z,8.15
2022-12-06T00:53:47.498Z,7.30
2022-12-06T00:58:10.160Z,6.97
2022-12-06T01:02:31.792Z,4.78
2022-12-06T01:06:53.862Z,5.32
2022-12-06T01:11:16.809Z,6.90
2022-12-06T01:15:38.807Z,5.88
2022-12-06T01:20:00.923Z,6.78
2022-12-06T01:24:22.788Z,3.80
2022-12-06T01:28:45.465Z,6.63
2022-12-06T01:33:07.102Z,6.25
2022-12-06T01:37:29.132Z,7.00
2022-12-06T01:41:51.059Z,4.95
2022-12-06T01:46:34.580Z,5.20
2022-12-06T01:50:58.655Z,4.65
2022-12-06T01:55:22.919Z,5.40
2022-12-06T01:59:45.688Z,5.63
2022-12-06T02:04:08.853Z,9.10
2022-12-06T02:08:31.893Z,11.18
2022-12-06T02:12:57.293Z,3.70
2022-12-06T02:18:00.279Z,7.07
2022-12-06T02:22:46.609Z,7.35
2022-12-06T02:27:38.585Z,7.88
2022-12-06T02:32:38.294Z,7.50
2022-12-06T02:37:12.707Z,7.80
2022-12-06T02:41:45.458Z,9.02
2022-12-06T02:46:09.656Z,6.60
2022-12-06T02:50:42.240Z,9.48
2022-12-06T02:55:04.830Z,10.10
2022-12-06T02:59:26.749Z,9.27
2022-12-06T03:04:07.249Z,9.60
2022-12-06T03:08:28.954Z,9.18
2022-12-06T03:13:02.685Z,12.68
2022-12-06T03:17:34.921Z,7.13
2022-12-06T03:22:09.787Z,9.55
2022-12-06T03:26:34.260Z,11.00
2022-12-06T03:31:06.161Z,10.27
2022-12-06T03:35:33.768Z,9.68
2022-12-06T03:40:08.212Z,16.83
2022-12-06T03:44:30.693Z,11.75
2022-12-06T03:49:16.107Z,8.00
2022-12-06T03:53:50.592Z,7.95
2022-12-06T03:58:12.948Z,9.70
2022-12-06T04:02:34.997Z,12.25
2022-12-06T04:06:56.739Z,11.57
2022-12-06T04:11:18.770Z,10.38
2022-12-06T04:15:40.710Z,9.38
2022-12-06T04:20:02.766Z,16.65
2022-12-06T04:24:24.635Z,12.23
2022-12-06T04:29:06.145Z,14.07
2022-12-06T04:33:46.894Z,10.25
2022-12-06T04:38:27.670Z,11.68
2022-12-06T04:43:08.513Z,10.73
2022-12-06T04:47:30.212Z,10.80
2022-12-06T04:51:52.344Z,13.05
2022-12-06T04:56:14.411Z,13.75
2022-12-06T05:00:36.547Z,12.90
2022-12-06T05:04:58.236Z,13.25
2022-12-06T05:09:20.236Z,13.65
2022-12-06T05:13:42.246Z,14.30
2022-12-06T05:18:04.372Z,13.30
2022-12-06T05:22:26.269Z,14.07
2022-12-06T05:26:48.362Z,14.48
2022-12-06T05:31:11.187Z,15.13
2022-12-06T05:35:33.253Z,14.85
2022-12-06T05:39:55.170Z,13.35
2022-12-06T05:44:17.155Z,15.98
2022-12-06T05:48:39.145Z,14.95
2022-12-06T05:53:02.629Z,16.55
2022-12-06T05:57:24.682Z,16.83
2022-12-06T06:01:46.630Z,16.73
2022-12-06T06:06:09.483Z,17.90
2022-12-06T06:10:31.468Z,15.65
2022-12-06T06:14:53.433Z,18.90
2022-12-06T06:19:15.413Z,17.50
2022-12-06T06:23:37.520Z,17.73
2022-12-06T06:27:59.282Z,15.02
2022-12-06T06:32:21.446Z,18.08
2022-12-06T06:36:45.941Z,18.52
2022-12-06T06:41:08.286Z,17.05
2022-12-06T06:45:29.939Z,18.30
2022-12-06T06:49:51.951Z,20.80
2022-12-06T06:54:15.447Z,22.23
2022-12-06T06:58:37.887Z,18.63
2022-12-06T07:02:59.884Z,20.48
2022-12-06T07:07:21.619Z,17.65
2022-12-06T07:11:45.390Z,16.85
2022-12-06T07:16:12.561Z,21.85
2022-12-06T07:20:34.608Z,18.63
2022-12-06T07:24:56.301Z,17.42
2022-12-06T07:29:18.242Z,16.52
2022-12-06T07:33:40.734Z,18.27
2022-12-06T07:38:02.335Z,19.30
2022-12-06T07:42:43.184Z,18.35
2022-12-06T07:47:05.374Z,17.80
2022-12-06T07:51:27.428Z,17.15
2022-12-06T07:55:49.345Z,16.52
2022-12-06T08:00:14.512Z,13.45
2022-12-06T08:04:36.617Z,14.10
2022-12-06T08:08:58.980Z,13.05
2022-12-06T08:13:20.487Z,13.32
2022-12-06T08:17:42.628Z,14.98
2022-12-06T08:22:04.848Z,18.58
2022-12-06T08:26:27.101Z,18.02
2022-12-06T08:30:49.179Z,17.70
2022-12-06T08:35:11.335Z,17.98
2022-12-06T08:39:33.143Z,16.95
2022-12-06T08:43:56.301Z,18.90
2022-12-06T08:48:18.871Z,17.98
2022-12-06T08:52:40.650Z,19.70
2022-12-06T08:57:02.760Z,18.45
2022-12-06T09:01:37.383Z,15.82
2022-12-06T09:06:03.557Z,16.73
2022-12-06T09:10:25.412Z,17.83
2022-12-06T09:14:47.284Z,25.95
2022-12-06T09:19:10.141Z,18.85
2022-12-06T09:23:32.162Z,20.13
2022-12-06T09:27:54.116Z,25.08
2022-12-06T09:32:15.717Z,21.42
2022-12-06T09:37:05.012Z,23.77
2022-12-06T09:41:50.857Z,23.77
2022-12-06T09:47:01.754Z,23.25
2022-12-06T09:52:10.677Z,22.98
2022-12-06T09:56:41.264Z,21.92
2022-12-06T10:01:42.447Z,19.58
2022-12-06T10:06:13.507Z,22.98
2022-12-06T10:10:53.320Z,21.52
2022-12-06T10:15:17.765Z,19.00
2022-12-06T10:19:48.279Z,18.85
2022-12-06T10:24:21.351Z,19.77
2022-12-06T10:29:05.095Z,17.55
2022-12-06T10:34:09.945Z,18.30
2022-12-06T10:38:56.145Z,20.35
2022-12-06T10:43:21.539Z,16.73
2022-12-06T10:47:44.817Z,20.15
2022-12-06T10:52:52.810Z,19.77
2022-12-06T10:57:26.630Z,17.77
2022-12-06T11:01:50.498Z,16.25
2022-12-06T11:06:37.460Z,19.75
2022-12-06T11:11:01.393Z,20.38
2022-12-06T11:15:33.797Z,17.35
2022-12-06T11:20:21.350Z,18.00
2022-12-06T11:25:30.527Z,19.10
2022-12-06T11:29:53.450Z,18.33
2022-12-06T11:34:48.218Z,18.02
2022-12-06T11:39:14.398Z,16.15
2022-12-06T11:43:36.930Z,16.83
2022-12-06T11:48:04.594Z,17.60
2022-12-06T11:52:38.893Z,16.75
2022-12-06T11:57:22.102Z,16.02
2022-12-06T12:01:50.233Z,16.38
2022-12-06T12:06:29.046Z,16.98
2022-12-06T12:11:02.903Z,18.52
2022-12-06T12:15:27.695Z,19.17
2022-12-06T12:20:07.335Z,18.75
2022-12-06T12:25:18.489Z,19.65
2022-12-06T12:29:29.693Z,18.75
2022-12-06T12:34:16.428Z,17.33
2022-12-06T12:38:53.843Z,20.15
2022-12-06T12:43:28.534Z,17.05
2022-12-06T12:48:02.833Z,16.40
2022-12-06T12:52:37.893Z,17.08
2022-12-06T12:57:02.790Z,17.85
2022-12-06T13:01:24.379Z,18.58
2022-12-06T13:05:49.463Z,17.40
2022-12-06T13:10:36.622Z,18.80
2022-12-06T13:15:14.945Z,19.55
2022-12-06T13:19:47.633Z,18.05
2022-12-06T13:24:11.949Z,20.90
2022-12-06T13:28:41.274Z,21.77
2022-12-06T13:33:21.806Z,17.77
2022-12-06T13:37:56.338Z,18.92
2022-12-06T13:42:45.764Z,21.85
2022-12-06T13:47:28.907Z,17.23
2022-12-06T13:51:51.004Z,18.40
2022-12-06T13:56:35.919Z,16.15
2022-12-06T14:00:58.090Z,15.68
2022-12-06T14:06:12.213Z,17.63
2022-12-06T14:10:35.814Z,23.17
2022-12-06T14:15:01.055Z,15.95
2022-12-06T14:19:49.734Z,16.73
2022-12-06T14:24:35.176Z,18.10
2022-12-06T14:29:00.777Z,15.90
2022-12-06T14:33:24.183Z,17.10
2022-12-06T14:37:47.555Z,19.40
2022-12-06T14:42:37.521Z,18.63
2022-12-06T14:46:59.911Z,22.15
2022-12-06T14:51:36.329Z,21.15
2022-12-06T14:56:07.986Z,17.83
2022-12-06T15:00:47.673Z,25.00
2022-12-06T15:05:37.825Z,21.13
2022-12-06T15:10:32.697Z,17.63
2022-12-06T15:14:54.739Z,17.10
2022-12-06T15:19:17.417Z,18.25
2022-12-06T15:23:59.345Z,17.05
2022-12-06T15:28:21.784Z,15.77
2022-12-06T15:32:43.679Z,16.15
2022-12-06T15:41:48.147Z,16.67
2022-12-06T15:46:23.693Z,17.00
2022-12-06T15:50:45.462Z,16.45
2022-12-06T15:55:16.168Z,16.83
2022-12-06T15:59:37.921Z,17.75
2022-12-06T16:04:00.657Z,15.80
2022-12-06T16:08:22.459Z,16.17
2022-12-06T16:13:03.339Z,20.00
2022-12-06T16:17:25.373Z,14.73
2022-12-06T16:21:54.435Z,15.98
2022-12-06T16:26:17.644Z,16.17
2022-12-06T16:30:40.200Z,18.13
2022-12-06T16:35:02.708Z,15.00
2022-12-06T16:39:25.431Z,14.07
2022-12-06T16:43:47.557Z,13.40
2022-12-06T16:48:19.947Z,14.35
2022-12-06T16:52:41.714Z,14.57
2022-12-06T16:57:03.935Z,13.98
2022-12-06T17:01:32.243Z,13.35
2022-12-06T17:05:54.635Z,13.80
2022-12-06T17:10:18.573Z,14.85
2022-12-06T17:14:40.278Z,14.60
2022-12-06T17:19:04.734Z,16.15
2022-12-06T17:23:26.918Z,13.90
2022-12-06T17:27:49.651Z,15.57
2022-12-06T17:32:11.933Z,15.90
2022-12-06T17:36:34.403Z,14.32
2022-12-06T17:40:56.534Z,15.15
2022-12-06T17:45:23.269Z,14.98
2022-12-06T17:49:46.871Z,12.73
2022-12-06T17:54:09.530Z,12.32
2022-12-06T17:58:31.728Z,11.48
2022-12-06T18:02:53.909Z,12.60
2022-12-06T18:07:18.004Z,12.00
2022-12-06T18:11:40.519Z,13.18
2022-12-06T18:16:12.338Z,13.23
2022-12-06T18:20:34.563Z,12.63
2022-12-06T18:24:56.132Z,13.00
2022-12-06T18:29:23.430Z,13.43
2022-12-06T18:33:45.587Z,13.85
2022-12-06T18:38:07.405Z,18.58
2022-12-06T18:42:29.389Z,19.48
2022-12-06T18:46:51.891Z,15.95
2022-12-06T18:51:21.121Z,16.67
2022-12-06T18:55:43.062Z,16.90
2022-12-06T19:00:07.093Z,16.92
2022-12-06T19:04:29.139Z,16.08
2022-12-06T19:08:53.820Z,16.60
2022-12-06T19:13:15.733Z,13.60
2022-12-06T19:17:37.863Z,16.90
2022-12-06T19:22:00.448Z,15.15
2022-12-06T19:26:23.493Z,12.98
2022-12-06T19:30:45.529Z,15.70
2022-12-06T19:35:08.613Z,13.30
2022-12-06T19:39:30.790Z,15.73
2022-12-06T19:44:11.553Z,16.05
2022-12-06T19:48:33.515Z,14.57
2022-12-06T19:52:56.139Z,17.98
2022-12-06T19:57:18.190Z,16.20
2022-12-06T20:01:51.250Z,15.82
2022-12-06T20:06:18.376Z,17.15
2022-12-06T20:10:44.286Z,20.95
2022-12-06T20:15:06.677Z,19.40
2022-12-06T20:19:29.148Z,17.85
2022-12-06T20:23:51.340Z,17.75
2022-12-06T20:28:13.928Z,18.77
2022-12-06T20:32:35.733Z,22.80
2022-12-06T20:37:01.177Z,17.95
2022-12-06T20:41:30.777Z,20.95
2022-12-06T20:45:53.076Z,19.70
2022-12-06T20:50:16.338Z,16.30
2022-12-06T20:54:38.107Z,13.30
2022-12-06T20:59:02.138Z,14.60
2022-12-06T21:03:23.940Z,14.70
2022-12-06T21:07:45.834Z,12.60
2022-12-06T21:12:07.945Z,13.57
2022-12-06T21:16:32.133Z,14.30
2022-12-06T21:20:55.002Z,12.55
2022-12-06T21:25:16.980Z,14.70
2022-12-06T21:29:42.572Z,15.13
2022-12-06T21:34:05.521Z,15.90
2022-12-06T21:38:30.873Z,15.98
2022-12-06T21:42:53.112Z,15.45
2022-12-06T21:47:15.354Z,15.32
2022-12-06T21:51:37.239Z,19.35
2022-12-06T21:55:59.282Z,14.23
2022-12-06T22:00:21.464Z,13.15
2022-12-06T22:04:43.334Z,14.65
2022-12-06T22:09:06.541Z,18.80
2022-12-06T22:13:29.142Z,18.40
2022-12-06T22:17:50.978Z,20.17
2022-12-06T22:22:13.820Z,21.35
2022-12-06T22:26:35.957Z,26.85
2022-12-06T22:31:19.852Z,26.58
2022-12-06T22:35:42.930Z,26.58
2022-12-06T22:40:05.724Z,27.80
2022-12-06T22:44:27.384Z,31.88
2022-12-06T22:48:49.780Z,34.80
2022-12-06T22:53:11.715Z,37.17
2022-12-06T22:57:33.465Z,31.83
2022-12-06T23:01:55.622Z,34.40
2022-12-06T23:06:22.076Z,32.97
2022-12-06T23:10:43.775Z,32.08
2022-12-06T23:15:07.216Z,35.53
2022-12-06T23:19:29.180Z,33.72
2022-12-06T23:23:54.326Z,37.22
2022-12-06T23:28:16.031Z,33.78
2022-12-06T23:32:37.828Z,44.85
2022-12-06T23:36:59.923Z,39.10
2022-12-06T23:41:25.396Z,31.45
2022-12-06T23:45:58.398Z,32.33
2022-12-06T23:50:21.838Z,29.65
2022-12-06T23:54:44.088Z,25.08
2022-12-06T23:59:09.559Z,28.50
